Time;durP1;ratioP1;P1;durP2;ratioP2;P2;SDS_P1;SDS_P2;PMS_P1;PMS_P2;Temp;Humidity;BMP_temperature;BMP_pressure;BME280_temperature;BME280_humidity;BME280_pressure;Samples;Min_cycle;Max_cycle;Signal;HPM_P1;HPM_P2
2021/12/04 00:01:46;;;;;;;19.63;7.80;;;4.10;99.90;;;;;;4882355;29;20410;-73
2021/12/04 00:04:12;;;;;;;16.27;7.40;;;4.10;99.90;;;;;;4882256;29;20132;-74
2021/12/04 00:06:39;;;;;;;18.45;7.78;;;4.10;99.90;;;;;;4865016;29;20136;-74
2021/12/04 00:09:05;;;;;;;19.10;8.20;;;4.10;99.90;;;;;;4849767;29;20085;-74
2021/12/04 00:11:37;;;;;;;21.33;7.75;;;4.10;99.90;;;;;;4865191;29;20087;-75
2021/12/04 00:14:03;;;;;;;20.70;8.57;;;4.10;99.90;;;;;;4882178;29;20071;-74
2021/12/04 00:16:29;;;;;;;19.27;7.53;;;4.10;99.90;;;;;;4865150;29;20061;-74
2021/12/04 00:18:54;;;;;;;17.60;8.00;;;4.10;99.90;;;;;;4882076;29;20051;-76
2021/12/04 00:21:20;;;;;;;19.27;8.30;;;4.10;99.90;;;;;;4880652;29;20049;-77
2021/12/04 00:23:46;;;;;;;20.90;8.27;;;4.10;99.90;;;;;;4864397;29;20397;-75
2021/12/04 00:26:11;;;;;;;20.23;8.73;;;4.00;99.90;;;;;;4880354;29;20092;-74
2021/12/04 00:28:38;;;;;;;19.27;8.23;;;4.00;99.90;;;;;;4865097;29;20112;-73
2021/12/04 00:31:09;;;;;;;19.30;8.63;;;4.10;99.90;;;;;;4880492;29;20053;-74
2021/12/04 00:33:38;;;;;;;22.50;8.90;;;4.00;99.90;;;;;;4882495;29;20100;-74
2021/12/04 00:36:11;;;;;;;18.02;7.75;;;4.00;99.90;;;;;;4882196;29;20080;-75
2021/12/04 00:49:18;;;;;;;19.83;8.55;;;4.00;99.90;;;;;;4864631;29;20098;-74
2021/12/04 00:51:55;;;;;;;17.55;7.88;;;4.00;99.90;;;;;;4881243;29;20051;-75
2021/12/04 00:54:23;;;;;;;23.55;9.15;;;4.80;99.90;;;;;;4881020;29;20037;-72
2021/12/04 00:56:50;;;;;;;20.08;8.77;;;4.00;99.90;;;;;;4879928;29;20053;-74
2021/12/04 00:59:17;;;;;;;21.58;8.50;;;4.00;99.90;;;;;;4881189;29;20138;-74
2021/12/04 01:01:43;;;;;;;22.90;9.63;;;4.00;99.90;;;;;;4880006;29;20463;-74
2021/12/04 01:04:14;;;;;;;16.92;7.03;;;4.00;99.90;;;;;;4880917;29;20041;-74
2021/12/04 01:06:40;;;;;;;19.67;7.63;;;4.00;99.90;;;;;;4880924;29;20096;-74
2021/12/04 01:09:08;;;;;;;24.13;9.02;;;4.00;99.90;;;;;;4881000;29;20055;-73
2021/12/04 01:11:35;;;;;;;20.88;8.10;;;4.00;99.90;;;;;;4880526;29;20147;-75
2021/12/04 01:14:01;;;;;;;20.83;8.55;;;5.00;99.90;;;;;;4880928;29;20045;-74
2021/12/04 01:16:27;;;;;;;20.20;8.30;;;4.00;99.90;;;;;;4880815;29;20096;-73
2021/12/04 01:18:54;;;;;;;23.95;9.10;;;4.00;99.90;;;;;;4881106;29;20108;-73
2021/12/04 01:21:19;;;;;;;20.52;7.82;;;4.00;99.90;;;;;;4864022;29;20089;-74
2021/12/04 01:23:45;;;;;;;23.92;8.90;;;4.00;99.90;;;;;;4880804;29;20084;-74
2021/12/04 01:26:11;;;;;;;21.95;8.93;;;4.00;99.90;;;;;;4880218;29;20041;-75
2021/12/04 01:28:37;;;;;;;22.73;8.23;;;4.10;99.90;;;;;;4880596;29;20494;-73
2021/12/04 01:31:03;;;;;;;23.52;9.48;;;4.10;99.90;;;;;;4880375;29;20041;-74
2021/12/04 01:33:28;;;;;;;26.83;11.48;;;4.10;99.90;;;;;;4880481;29;20519;-71
2021/12/04 01:35:54;;;;;;;29.85;12.50;;;4.00;99.90;;;;;;4880599;29;20041;-75
2021/12/04 01:38:20;;;;;;;27.23;12.43;;;4.10;99.90;;;;;;4879486;29;20067;-74
2021/12/04 01:40:46;;;;;;;27.30;11.80;;;4.10;99.90;;;;;;4879349;29;20143;-75
2021/12/04 01:43:12;;;;;;;27.10;13.27;;;4.10;99.90;;;;;;4880035;29;20494;-75
2021/12/04 01:45:37;;;;;;;26.67;13.10;;;4.10;99.90;;;;;;4863504;29;20052;-74
2021/12/04 01:48:04;;;;;;;28.67;14.23;;;4.10;99.90;;;;;;4880139;29;20043;-74
2021/12/04 01:50:32;;;;;;;26.10;13.32;;;4.00;99.90;;;;;;4880660;29;20420;-74
2021/12/04 01:52:59;;;;;;;31.70;13.65;;;5.10;99.90;;;;;;4880365;29;20057;-74
2021/12/04 01:55:27;;;;;;;27.52;12.98;;;4.10;99.90;;;;;;4863886;29;20140;-74
2021/12/04 01:57:52;;;;;;;32.28;13.93;;;4.10;99.90;;;;;;4879842;29;20095;-75
2021/12/04 02:00:18;;;;;;;28.38;13.70;;;4.10;99.90;;;;;;4879037;29;20041;-74
2021/12/04 02:02:44;;;;;;;29.83;14.45;;;4.10;99.90;;;;;;4879833;29;20136;-75
2021/12/04 02:05:10;;;;;;;27.58;13.13;;;4.10;99.90;;;;;;4880180;29;20072;-73
2021/12/04 02:07:35;;;;;;;28.45;13.60;;;4.10;99.90;;;;;;4863354;29;20113;-72
2021/12/04 02:10:04;;;;;;;28.50;13.00;;;5.00;99.90;;;;;;4878806;29;20053;-72
2021/12/04 02:12:29;;;;;;;28.63;13.50;;;4.10;99.90;;;;;;4880142;29;20053;-74
2021/12/04 02:14:55;;;;;;;30.80;13.32;;;4.10;99.90;;;;;;4878998;29;20044;-74
2021/12/04 02:17:21;;;;;;;26.80;11.95;;;4.10;99.90;;;;;;4863042;29;20053;-75
2021/12/04 02:19:47;;;;;;;28.58;13.50;;;4.10;99.90;;;;;;4863191;29;20497;-71
2021/12/04 02:22:13;;;;;;;28.73;14.23;;;4.10;99.90;;;;;;4879970;29;20085;-74
2021/12/04 02:24:39;;;;;;;27.52;13.80;;;4.10;99.90;;;;;;4879738;29;20041;-74
2021/12/04 02:27:05;;;;;;;25.88;12.88;;;4.10;99.90;;;;;;4862962;29;20135;-74
2021/12/04 02:29:31;;;;;;;27.27;13.25;;;4.10;99.90;;;;;;4877977;29;20139;-73
2021/12/04 02:31:58;;;;;;;28.88;13.35;;;4.10;99.90;;;;;;4862782;29;20049;-74
2021/12/04 02:34:27;;;;;;;26.05;12.98;;;4.10;99.90;;;;;;4862961;29;20057;-74
2021/12/04 02:36:53;;;;;;;26.85;13.85;;;4.10;99.90;;;;;;4862996;29;20065;-75
2021/12/04 02:39:32;;;;;;;25.17;12.40;;;4.70;99.90;;;;;;4879742;29;20040;-74
2021/12/04 02:41:59;;;;;;;24.63;12.35;;;4.10;99.90;;;;;;4879321;29;20076;-74
2021/12/04 02:44:39;;;;;;;24.05;10.80;;;4.80;99.90;;;;;;4879383;29;20045;-74
2021/12/04 02:47:06;;;;;;;26.58;12.55;;;4.10;99.90;;;;;;4862356;29;20052;-76
2021/12/04 02:49:33;;;;;;;23.40;11.35;;;4.10;99.90;;;;;;4862826;29;20053;-75
2021/12/04 02:52:06;;;;;;;26.98;13.02;;;4.10;99.90;;;;;;4879584;29;20504;-74
2021/12/04 02:54:33;;;;;;;23.63;12.18;;;4.00;99.90;;;;;;4878255;29;20091;-73
2021/12/04 02:57:02;;;;;;;20.98;11.13;;;4.10;99.90;;;;;;4847489;29;20049;-74
2021/12/04 02:59:28;;;;;;;23.10;12.13;;;4.10;99.90;;;;;;4879208;29;20063;-74
2021/12/04 03:01:56;;;;;;;24.40;11.93;;;4.10;99.90;;;;;;4879189;29;20057;-74
2021/12/04 03:04:24;;;;;;;23.60;12.20;;;4.10;99.90;;;;;;4862553;29;20058;-76
2021/12/04 03:06:49;;;;;;;21.15;10.82;;;4.50;99.90;;;;;;4879195;29;20185;-76
2021/12/04 03:09:17;;;;;;;23.45;11.70;;;4.10;99.90;;;;;;4879431;29;20077;-74
2021/12/04 03:11:43;;;;;;;21.13;11.07;;;4.10;99.90;;;;;;4862866;29;20565;-76
2021/12/04 03:14:09;;;;;;;21.73;11.25;;;4.00;99.90;;;;;;4878977;29;20087;-76
2021/12/04 03:16:39;;;;;;;20.23;10.68;;;4.00;99.90;;;;;;4879073;29;20509;-72
2021/12/04 03:19:06;;;;;;;20.23;10.82;;;4.00;99.90;;;;;;4879211;29;20170;-73
2021/12/04 03:21:33;;;;;;;20.45;10.57;;;4.10;99.90;;;;;;4862479;29;20111;-73
2021/12/04 03:24:18;;;;;;;19.90;10.15;;;5.00;99.90;;;;;;4879337;29;20049;-74
2021/12/04 03:26:49;;;;;;;20.05;10.13;;;4.10;99.90;;;;;;4879497;29;20204;-72
2021/12/04 03:29:19;;;;;;;20.02;10.48;;;4.10;99.90;;;;;;4883046;29;20559;-75
2021/12/04 03:32:22;;;;;;;21.65;10.52;;;4.00;99.90;;;;;;4882913;29;20056;-73
2021/12/04 03:40:33;;;;;;;15.15;8.18;;;4.00;99.90;;;;;;4882829;29;20414;-74
2021/12/04 03:42:56;;;;;;;16.80;9.18;;;4.00;99.90;;;;;;4882489;29;20116;-74
2021/12/04 03:45:22;;;;;;;19.40;10.10;;;4.00;99.90;;;;;;4865901;29;20061;-72
2021/12/04 03:47:50;;;;;;;19.98;9.82;;;4.00;99.90;;;;;;4882393;29;20068;-74
2021/12/04 03:50:17;;;;;;;18.80;9.18;;;4.00;99.90;;;;;;4882216;29;20168;-75
2021/12/04 03:52:43;;;;;;;20.35;10.15;;;4.00;99.90;;;;;;4882508;29;20057;-74
2021/12/04 03:55:09;;;;;;;18.02;9.63;;;4.00;99.90;;;;;;4882374;29;20041;-73
2021/12/04 03:57:36;;;;;;;18.80;9.75;;;4.00;99.90;;;;;;4881245;29;20493;-74
2021/12/04 04:00:04;;;;;;;16.33;9.52;;;4.70;99.90;;;;;;4882412;29;20052;-74
2021/12/04 04:02:29;;;;;;;18.13;9.43;;;4.00;99.90;;;;;;4882214;29;20546;-74
2021/12/04 04:04:55;;;;;;;17.83;9.60;;;4.00;99.90;;;;;;4865098;29;20148;-74
2021/12/04 04:07:21;;;;;;;18.35;10.05;;;4.10;99.90;;;;;;4882072;29;20393;-74
2021/12/04 04:09:47;;;;;;;19.13;9.98;;;4.00;99.90;;;;;;4882081;29;20049;-73
2021/12/04 04:12:13;;;;;;;17.25;9.70;;;4.00;99.90;;;;;;4882454;29;20052;-74
2021/12/04 04:14:39;;;;;;;18.33;9.40;;;4.00;99.90;;;;;;4882040;29;20462;-74
2021/12/04 04:17:05;;;;;;;16.25;8.45;;;4.60;99.90;;;;;;4881962;29;20049;-73
2021/12/04 04:19:31;;;;;;;16.20;9.07;;;4.00;99.90;;;;;;4882174;29;20037;-74
2021/12/04 04:21:58;;;;;;;19.42;9.30;;;4.00;99.90;;;;;;4881670;29;20044;-75
2021/12/04 04:24:29;;;;;;;16.30;9.13;;;4.90;99.90;;;;;;4881693;29;20049;-74
2021/12/04 04:26:55;;;;;;;17.02;8.30;;;4.00;99.90;;;;;;4881846;29;20049;-73
2021/12/04 04:29:21;;;;;;;16.33;8.85;;;4.00;99.90;;;;;;4881769;29;20490;-74
2021/12/04 04:31:49;;;;;;;18.67;9.35;;;4.00;99.90;;;;;;4881569;29;20502;-74
2021/12/04 04:34:26;;;;;;;14.23;7.68;;;4.00;99.90;;;;;;4881898;29;20246;-74
2021/12/04 05:12:22;;;;;;;18.77;8.93;;;3.90;99.90;;;;;;4860435;29;20056;-73
2021/12/04 05:14:54;;;;;;;18.35;9.13;;;4.00;99.90;;;;;;4860362;29;20050;-73
2021/12/04 05:20:04;;;;;;;16.52;8.52;;;3.90;99.90;;;;;;4860220;29;20132;-74
2021/12/04 05:22:32;;;;;;;17.45;8.68;;;3.90;99.90;;;;;;4845059;29;20450;-74
2021/12/04 05:24:57;;;;;;;16.63;9.20;;;3.90;99.90;;;;;;4859629;29;20061;-76
2021/12/04 05:27:23;;;;;;;18.90;9.23;;;3.90;99.90;;;;;;4860071;29;20064;-74
2021/12/04 05:29:49;;;;;;;14.85;7.75;;;5.10;99.90;;;;;;4844677;29;20082;-73
2021/12/04 05:32:16;;;;;;;20.33;9.18;;;3.90;99.90;;;;;;4860127;29;20443;-72
2021/12/04 05:34:42;;;;;;;15.35;8.25;;;3.90;99.90;;;;;;4859907;29;20050;-74
2021/12/04 05:37:08;;;;;;;20.27;9.25;;;4.70;99.90;;;;;;4847140;29;20088;-74
2021/12/04 05:39:34;;;;;;;17.55;8.98;;;3.90;99.90;;;;;;4880347;29;20132;-74
2021/12/04 05:42:00;;;;;;;17.13;8.35;;;3.90;99.90;;;;;;4880358;29;20101;-73
2021/12/04 05:44:27;;;;;;;20.27;9.20;;;3.90;99.90;;;;;;4880482;29;20041;-82
2021/12/04 05:47:03;;;;;;;21.10;9.80;;;3.90;99.90;;;;;;4880400;29;20045;-83
2021/12/04 05:49:35;;;;;;;19.73;9.43;;;3.90;99.90;;;;;;4880300;29;20053;-75
2021/12/04 05:54:48;;;;;;;20.42;8.38;;;4.00;99.90;;;;;;4880322;29;20136;-74
2021/12/04 05:57:14;;;;;;;20.35;9.15;;;3.90;99.90;;;;;;4863511;29;20136;-75
2021/12/04 05:59:40;;;;;;;18.33;8.55;;;3.90;99.90;;;;;;4863819;29;20098;-79
2021/12/04 06:02:05;;;;;;;19.70;9.05;;;3.90;99.90;;;;;;4879969;29;20554;-73
2021/12/04 06:04:31;;;;;;;18.55;9.35;;;4.00;99.90;;;;;;4878981;29;20447;-74
2021/12/04 06:06:57;;;;;;;18.00;9.25;;;4.30;99.90;;;;;;4880210;29;20057;-76
2021/12/04 06:09:24;;;;;;;19.30;9.13;;;4.00;99.90;;;;;;4880200;29;20083;-74
2021/12/04 06:11:49;;;;;;;15.48;8.02;;;4.00;99.90;;;;;;4879664;29;20135;-73
2021/12/04 06:14:15;;;;;;;15.95;8.27;;;4.00;99.90;;;;;;4880067;29;20140;-74
2021/12/04 06:16:41;;;;;;;19.70;9.43;;;4.70;99.90;;;;;;4879928;29;20044;-74
2021/12/04 06:24:43;;;;;;;19.85;9.32;;;4.00;99.90;;;;;;4859226;29;20549;-74
2021/12/04 06:27:09;;;;;;;18.63;8.90;;;4.50;99.90;;;;;;4843260;29;20635;-74
2021/12/04 06:29:36;;;;;;;19.42;8.93;;;4.60;99.90;;;;;;4843549;29;20081;-74
2021/12/04 06:32:02;;;;;;;16.40;8.43;;;4.00;99.90;;;;;;4843557;29;20088;-75
2021/12/04 06:34:28;;;;;;;17.92;8.45;;;4.00;99.90;;;;;;4827839;29;20564;-74
2021/12/04 06:36:53;;;;;;;17.08;8.48;;;3.90;99.90;;;;;;4859037;29;20055;-74
2021/12/04 06:39:19;;;;;;;19.45;9.70;;;4.90;99.90;;;;;;4858959;29;20103;-74
2021/12/04 06:41:45;;;;;;;16.65;8.73;;;3.90;99.90;;;;;;4858780;29;20053;-74
2021/12/04 06:44:11;;;;;;;19.80;10.07;;;3.90;99.90;;;;;;4842623;29;20061;-75
2021/12/04 06:46:37;;;;;;;18.88;8.52;;;4.10;99.90;;;;;;4858825;29;20064;-77
2021/12/04 06:49:15;;;;;;;18.65;9.57;;;3.90;99.90;;;;;;4858864;29;20447;-75
2021/12/04 06:51:45;;;;;;;19.17;9.45;;;3.90;99.90;;;;;;4858768;29;20391;-76
2021/12/04 06:54:20;;;;;;;18.92;9.90;;;3.90;99.90;;;;;;4843152;29;20106;-79
2021/12/04 06:56:46;;;;;;;19.67;9.80;;;3.90;99.90;;;;;;4858582;29;20096;-73
2021/12/04 06:59:21;;;;;;;18.73;7.53;;;3.90;99.90;;;;;;4872343;29;20065;-74
2021/12/04 07:01:47;;;;;;;14.60;6.38;;;3.90;99.90;;;;;;4862355;29;20535;-74
2021/12/04 07:04:16;;;;;;;18.73;8.02;;;3.90;99.90;;;;;;4879283;29;20137;-74
2021/12/04 07:06:41;;;;;;;17.63;7.93;;;3.90;99.90;;;;;;4879355;29;20049;-77
2021/12/04 07:09:08;;;;;;;18.25;7.75;;;4.50;99.90;;;;;;4862587;29;20406;-73
2021/12/04 07:11:35;;;;;;;19.80;8.65;;;3.90;99.90;;;;;;4879553;29;20049;-74
2021/12/04 07:14:01;;;;;;;18.15;7.25;;;3.90;99.90;;;;;;4879167;29;20406;-75
2021/12/04 07:16:27;;;;;;;14.95;6.38;;;5.10;99.90;;;;;;4863217;29;20053;-74
2021/12/04 07:18:52;;;;;;;17.30;6.72;;;3.90;99.90;;;;;;4879443;29;20112;-75
2021/12/04 07:21:18;;;;;;;14.88;6.53;;;3.90;99.90;;;;;;4879366;29;20541;-75
2021/12/04 07:23:44;;;;;;;16.95;6.50;;;3.90;99.90;;;;;;4879154;29;20509;-74
2021/12/04 07:26:10;;;;;;;18.95;7.28;;;3.90;99.90;;;;;;4879271;29;20045;-74
2021/12/04 07:28:36;;;;;;;16.85;6.97;;;4.80;99.90;;;;;;4862189;29;20482;-75
2021/12/04 07:31:03;;;;;;;17.75;7.07;;;3.90;99.90;;;;;;4846344;29;20095;-74
2021/12/04 07:33:29;;;;;;;18.90;7.32;;;3.90;99.90;;;;;;4878761;29;20395;-75
2021/12/04 07:35:57;;;;;;;17.92;7.47;;;3.90;99.90;;;;;;4877685;29;20063;-74
2021/12/04 07:38:23;;;;;;;17.75;7.63;;;3.90;99.90;;;;;;4862168;29;20057;-75
2021/12/04 07:40:49;;;;;;;16.50;6.80;;;3.80;99.90;;;;;;4877316;29;20056;-71
2021/12/04 07:43:15;;;;;;;20.45;7.30;;;3.90;99.90;;;;;;4878942;29;20061;-74
2021/12/04 07:45:41;;;;;;;13.63;5.40;;;3.80;99.90;;;;;;4861831;29;20089;-76
2021/12/04 07:48:07;;;;;;;16.13;6.28;;;3.90;99.90;;;;;;4862187;29;20055;-69
2021/12/04 07:50:33;;;;;;;15.05;6.03;;;3.90;99.90;;;;;;4878833;29;20049;-73
2021/12/04 07:52:59;;;;;;;12.43;5.18;;;3.90;99.90;;;;;;4878275;29;20382;-71
2021/12/04 07:55:26;;;;;;;17.73;7.35;;;4.90;99.90;;;;;;4878473;29;20139;-74
2021/12/04 07:57:52;;;;;;;15.38;6.35;;;3.90;99.90;;;;;;4878765;29;20052;-75
2021/12/04 08:00:20;;;;;;;12.35;5.07;;;3.90;99.90;;;;;;4878534;29;20498;-72
2021/12/04 08:02:45;;;;;;;11.57;4.75;;;3.90;99.90;;;;;;4861411;29;20144;-74
2021/12/04 08:05:12;;;;;;;13.38;5.85;;;3.90;99.90;;;;;;4862398;29;20084;-73
2021/12/04 08:07:38;;;;;;;18.42;7.32;;;4.00;99.90;;;;;;4878543;29;20057;-75
2021/12/04 08:10:10;;;;;;;17.92;7.18;;;4.00;99.90;;;;;;4862079;29;20045;-74
2021/12/04 08:12:36;;;;;;;17.05;7.35;;;4.00;99.90;;;;;;4861772;29;20075;-72
2021/12/04 08:15:04;;;;;;;16.33;6.72;;;4.00;99.90;;;;;;4881313;29;20044;-72
2021/12/04 08:17:29;;;;;;;15.00;6.18;;;4.00;99.90;;;;;;4881749;29;20049;-74
2021/12/04 08:19:55;;;;;;;15.25;5.75;;;4.00;99.90;;;;;;4881871;29;20089;-74
2021/12/04 08:22:21;;;;;;;12.75;5.15;;;4.00;99.90;;;;;;4865281;29;20156;-74
2021/12/04 08:24:47;;;;;;;14.50;6.00;;;4.00;99.90;;;;;;4865379;29;20490;-73
2021/12/04 08:27:14;;;;;;;13.95;5.75;;;3.90;99.90;;;;;;4881716;29;20511;-74
2021/12/04 08:29:40;;;;;;;14.95;6.18;;;4.00;99.90;;;;;;4881930;29;20051;-74
2021/12/04 08:32:08;;;;;;;15.75;6.18;;;4.00;99.90;;;;;;4865332;29;20212;-75
2021/12/04 08:34:34;;;;;;;14.38;6.03;;;4.00;99.90;;;;;;4881345;29;20119;-75
2021/12/04 08:37:00;;;;;;;13.02;4.90;;;4.00;99.90;;;;;;4865082;29;20443;-73
2021/12/04 08:39:25;;;;;;;14.68;5.75;;;4.00;99.90;;;;;;4881568;29;20136;-74
2021/12/04 08:41:51;;;;;;;15.75;6.00;;;4.00;99.90;;;;;;4881377;29;20053;-74
2021/12/04 08:44:19;;;;;;;16.52;6.60;;;4.00;99.90;;;;;;4881760;29;20049;-73
2021/12/04 08:46:45;;;;;;;15.50;6.13;;;4.00;99.90;;;;;;4864762;29;20383;-74
2021/12/04 08:49:12;;;;;;;18.10;6.18;;;4.00;99.90;;;;;;4881251;29;20136;-74
2021/12/04 08:51:38;;;;;;;15.43;5.53;;;4.00;99.90;;;;;;4881273;29;20121;-76
2021/12/04 08:54:04;;;;;;;15.52;6.18;;;4.10;99.90;;;;;;4880237;29;20045;-72
2021/12/04 08:56:33;;;;;;;16.63;5.90;;;4.10;99.90;;;;;;4864468;29;20057;-73
2021/12/04 08:58:58;;;;;;;17.90;6.47;;;4.10;99.90;;;;;;4864373;29;20061;-77
2021/12/04 09:01:30;;;;;;;16.60;6.35;;;4.10;99.90;;;;;;4881344;29;20049;-75
2021/12/04 09:04:10;;;;;;;20.25;5.78;;;4.10;99.90;;;;;;4881165;29;20065;-75
2021/12/04 09:06:38;;;;;;;16.08;5.90;;;4.10;99.90;;;;;;4863980;29;20402;-75
2021/12/04 09:09:06;;;;;;;17.33;6.93;;;4.10;99.90;;;;;;4881275;29;20049;-72
2021/12/04 09:11:37;;;;;;;18.10;6.03;;;4.10;99.90;;;;;;4881238;29;20072;-76
2021/12/04 09:14:04;;;;;;;14.38;5.90;;;4.20;99.90;;;;;;4880929;29;20502;-76
2021/12/04 09:16:30;;;;;;;17.33;6.20;;;4.20;99.90;;;;;;4881021;29;20044;-75
2021/12/04 09:18:56;;;;;;;15.95;7.10;;;4.20;99.90;;;;;;4880824;29;20058;-74
2021/12/04 09:21:24;;;;;;;15.50;5.28;;;4.30;99.90;;;;;;4880530;29;20044;-75
2021/12/04 09:24:00;;;;;;;16.25;6.00;;;4.30;99.90;;;;;;4880718;29;20049;-74
2021/12/04 09:26:39;;;;;;;16.25;6.00;;;5.00;99.90;;;;;;4880669;29;20173;-74
2021/12/04 09:29:19;;;;;;;18.60;6.63;;;4.30;99.90;;;;;;4880879;29;20049;-75
2021/12/04 09:32:00;;;;;;;16.13;7.22;;;4.30;99.90;;;;;;4880967;29;20520;-74
2021/12/04 10:19:18;;;;;;;23.85;8.40;;;4.50;99.90;;;;;;4877738;29;20124;-75
2021/12/04 10:22:04;;;;;;;23.70;8.73;;;4.40;99.90;;;;;;4877804;29;20080;-74
2021/12/04 10:24:47;;;;;;;24.40;9.07;;;4.40;99.90;;;;;;4877230;29;20072;-74
2021/12/04 10:33:08;;;;;;;28.85;9.73;;;4.40;99.90;;;;;;4878706;29;20052;-75
2021/12/04 10:35:34;;;;;;;24.13;8.77;;;4.40;99.90;;;;;;4879645;29;20468;-75
2021/12/04 10:38:04;;;;;;;25.75;9.07;;;4.30;99.90;;;;;;4879262;29;20128;-74
2021/12/04 10:40:45;;;;;;;28.30;10.43;;;5.00;99.90;;;;;;4879341;29;20380;-74
2021/12/04 10:43:15;;;;;;;26.95;10.48;;;5.10;99.90;;;;;;4879469;29;20132;-75
2021/12/04 10:45:47;;;;;;;32.17;10.18;;;4.40;99.90;;;;;;4879366;29;20040;-75
2021/12/04 10:48:18;;;;;;;;;;;4.40;99.90;;;;;;4880102;29;20044;-74
2021/12/04 10:50:59;;;;;;;29.13;10.45;;;4.50;99.90;;;;;;4863172;29;20395;-75
2021/12/04 10:53:30;;;;;;;25.42;11.32;;;4.50;99.90;;;;;;4879604;29;20053;-72
2021/12/04 11:24:06;;;;;;;26.27;9.90;;;4.50;99.90;;;;;;4821954;29;20081;-73
2021/12/04 11:42:59;;;;;;;29.27;10.13;;;4.60;99.90;;;;;;4830777;29;20077;-72
2021/12/04 11:45:34;;;;;;;27.15;11.23;;;4.50;99.90;;;;;;4838888;29;20065;-72
2021/12/04 11:48:03;;;;;;;24.05;11.27;;;4.60;99.90;;;;;;4843428;29;20136;-72
2021/12/04 11:50:37;;;;;;;25.73;10.32;;;4.60;99.90;;;;;;4845708;29;20129;-75
2021/12/04 11:53:09;;;;;;;27.88;9.98;;;4.60;99.90;;;;;;4845444;29;20529;-72
2021/12/04 11:55:38;;;;;;;25.38;10.50;;;4.60;99.90;;;;;;4844187;29;20097;-74
2021/12/04 11:58:04;;;;;;;27.75;11.10;;;5.30;99.90;;;;;;4845667;29;20053;-75
2021/12/04 12:00:35;;;;;;;25.13;10.57;;;4.60;99.90;;;;;;4859317;29;20042;-72
2021/12/04 12:03:07;;;;;;;26.10;11.37;;;4.60;99.90;;;;;;4845573;29;20121;-75
2021/12/04 12:05:42;;;;;;;25.05;9.68;;;4.60;99.90;;;;;;4845182;29;20358;-75
2021/12/04 12:08:07;;;;;;;29.25;13.38;;;4.60;99.90;;;;;;4859561;29;20046;-75
2021/12/04 12:10:43;;;;;;;31.67;13.85;;;5.10;99.90;;;;;;4845348;29;20065;-74
2021/12/04 12:13:17;;;;;;;28.95;13.35;;;4.70;99.90;;;;;;4844120;29;20057;-76
2021/12/04 12:15:43;;;;;;;30.00;16.13;;;5.30;99.90;;;;;;4844740;29;20571;-73
2021/12/04 12:18:10;;;;;;;28.33;14.68;;;4.70;99.90;;;;;;4844361;29;20536;-75
2021/12/04 12:20:41;;;;;;;26.63;10.55;;;4.70;99.90;;;;;;4845164;29;20054;-74
2021/12/04 12:23:10;;;;;;;27.25;11.05;;;4.60;99.90;;;;;;4843692;29;20053;-72
2021/12/04 12:31:52;;;;;;;29.67;12.18;;;4.60;99.90;;;;;;4844693;29;20106;-75
2021/12/04 12:36:02;;;;;;;26.77;10.77;;;4.60;99.90;;;;;;4845147;29;20089;-74
2021/12/04 12:37:22;;;;;;;27.95;10.63;;;4.60;99.90;;;;;;4843700;29;20080;-78
2021/12/04 12:40:04;;;;;;;25.45;10.05;;;5.10;99.90;;;;;;4845060;29;20062;-73
2021/12/04 12:42:34;;;;;;;28.55;10.27;;;4.70;99.90;;;;;;4856416;29;20122;-75
2021/12/04 12:45:24;;;;;;;40.65;17.17;;;4.70;99.90;;;;;;4862937;29;20045;-76
2021/12/04 12:48:00;;;;;;;29.35;12.25;;;4.70;99.90;;;;;;4860915;29;20053;-75
2021/12/04 12:50:37;;;;;;;27.33;10.35;;;4.80;99.90;;;;;;4862721;29;20383;-77
2021/12/04 12:53:26;;;;;;;28.17;11.93;;;4.70;99.90;;;;;;4877028;29;20122;-76
2021/12/04 12:56:04;;;;;;;23.50;9.65;;;4.70;99.90;;;;;;4862646;29;20053;-77
2021/12/04 12:58:38;;;;;;;26.35;9.63;;;4.70;99.90;;;;;;4862846;29;20374;-74
2021/12/04 13:12:50;;;;;;;26.55;11.52;;;4.60;99.90;;;;;;4876679;29;20132;-76
2021/12/04 13:15:35;;;;;;;29.55;13.15;;;5.10;99.90;;;;;;4861373;29;20486;-76
2021/12/04 13:18:20;;;;;;;30.33;11.88;;;4.50;99.90;;;;;;4862297;29;20052;-77
2021/12/04 13:20:47;;;;;;;26.58;9.70;;;4.60;99.90;;;;;;4862158;29;20068;-78
2021/12/04 13:23:15;;;;;;;27.10;10.48;;;4.60;99.90;;;;;;4862473;29;20418;-76
2021/12/04 13:25:59;;;;;;;26.73;10.57;;;4.60;99.90;;;;;;4862440;29;20050;-75
2021/12/04 13:28:29;;;;;;;32.28;11.27;;;5.20;99.90;;;;;;4862241;29;20506;-76
2021/12/04 13:30:56;;;;;;;25.67;9.25;;;4.60;99.90;;;;;;4860662;29;20060;-73
2021/12/04 13:33:22;;;;;;;28.65;9.88;;;4.60;99.90;;;;;;4862323;29;20046;-75
2021/12/04 13:35:47;;;;;;;21.20;8.23;;;4.60;99.90;;;;;;4861556;29;20049;-76
2021/12/04 13:38:15;;;;;;;28.05;9.02;;;4.60;99.90;;;;;;4861199;29;20082;-75
2021/12/04 13:40:43;;;;;;;24.10;9.30;;;4.60;99.90;;;;;;4861824;29;20132;-75
2021/12/04 13:43:14;;;;;;;27.63;9.48;;;4.70;99.90;;;;;;4862144;29;20080;-76
2021/12/04 13:45:41;;;;;;;24.55;8.63;;;4.70;99.90;;;;;;4875281;29;20501;-72
2021/12/04 13:48:08;;;;;;;26.15;7.93;;;5.50;99.90;;;;;;4861927;29;20053;-75
2021/12/04 13:53:04;;;;;;;17.23;6.30;;;4.70;99.90;;;;;;4876091;29;20054;-77
2021/12/04 13:55:34;;;;;;;18.30;5.85;;;5.60;99.90;;;;;;4862032;29;20049;-79
2021/12/04 13:58:03;;;;;;;17.70;6.93;;;4.70;99.90;;;;;;4861780;29;20098;-78
2021/12/04 14:00:28;;;;;;;24.67;7.78;;;5.30;99.90;;;;;;4861547;29;20074;-77
2021/12/04 14:02:54;;;;;;;22.67;8.30;;;4.80;99.90;;;;;;4861799;29;20053;-75
2021/12/04 14:05:22;;;;;;;21.63;8.32;;;4.70;99.90;;;;;;4845022;29;20421;-76
2021/12/04 14:07:49;;;;;;;23.35;8.15;;;4.80;99.90;;;;;;4861064;29;20061;-76
2021/12/04 14:10:27;;;;;;;19.90;7.32;;;4.80;99.90;;;;;;4861548;29;20042;-76
2021/12/04 14:12:57;;;;;;;22.38;8.38;;;4.80;99.90;;;;;;4861484;29;20124;-79
2021/12/04 14:15:24;;;;;;;20.27;6.95;;;4.80;99.90;;;;;;4861310;29;20498;-77
2021/12/04 14:18:06;;;;;;;21.95;8.82;;;4.80;99.90;;;;;;4861380;29;20046;-76
2021/12/04 14:20:34;;;;;;;25.10;10.32;;;4.80;99.90;;;;;;4875205;29;20148;-75
2021/12/04 14:22:59;;;;;;;23.77;9.70;;;4.80;99.90;;;;;;4861123;29;20045;-81
2021/12/04 14:25:28;;;;;;;27.35;9.93;;;4.70;99.90;;;;;;4861304;29;20063;-76
2021/12/04 14:27:56;;;;;;;29.52;10.45;;;4.70;99.90;;;;;;4859742;29;20084;-80
2021/12/04 14:30:25;;;;;;;51.42;28.08;;;4.80;99.90;;;;;;4844143;29;20510;-77
2021/12/04 14:32:55;;;;;;;36.38;14.30;;;4.70;99.90;;;;;;4861382;29;20110;-74
2021/12/04 14:35:25;;;;;;;32.40;16.98;;;4.70;99.90;;;;;;4875192;29;20057;-76
2021/12/04 14:37:55;;;;;;;53.33;29.70;;;5.40;99.90;;;;;;4860632;29;20053;-75
2021/12/04 14:40:30;;;;;;;58.63;17.38;;;4.80;99.90;;;;;;4860971;29;20056;-74
2021/12/04 14:42:55;;;;;;;66.38;24.38;;;5.10;99.90;;;;;;4860502;29;20424;-78
2021/12/04 14:45:33;;;;;;;58.75;31.13;;;4.80;99.90;;;;;;4860842;29;20061;-73
2021/12/04 14:48:08;;;;;;;47.17;18.83;;;5.40;99.90;;;;;;4860862;29;20061;-74
2021/12/04 14:50:37;;;;;;;59.55;27.92;;;4.80;99.90;;;;;;4860896;29;20049;-73
2021/12/04 14:53:05;;;;;;;47.83;23.95;;;5.30;99.90;;;;;;4859292;29;20454;-82
2021/12/04 14:55:32;;;;;;;50.78;19.92;;;4.70;99.90;;;;;;4860330;29;20045;-82
2021/12/04 14:57:58;;;;;;;81.38;38.10;;;5.30;99.90;;;;;;4860922;29;20053;-77
2021/12/04 15:00:30;;;;;;;51.97;21.52;;;4.70;99.90;;;;;;4860648;29;20045;-72
2021/12/04 15:03:00;;;;;;;68.82;31.38;;;4.70;99.90;;;;;;4860809;29;20058;-79
2021/12/04 15:05:35;;;;;;;49.25;23.15;;;5.50;99.90;;;;;;4860659;29;20065;-75
2021/12/04 15:08:16;;;;;;;41.28;20.50;;;5.50;99.90;;;;;;4860587;29;20402;-78
2021/12/04 15:10:43;;;;;;;43.90;18.55;;;4.70;99.90;;;;;;4860193;29;20053;-81
2021/12/04 15:13:21;;;;;;;94.03;49.83;;;4.70;99.90;;;;;;4860517;29;20060;-73
2021/12/04 15:15:47;;;;;;;61.17;31.20;;;5.30;99.90;;;;;;4860606;29;20061;-77
2021/12/04 15:18:15;;;;;;;51.05;21.05;;;4.70;99.90;;;;;;4860678;29;20399;-77
2021/12/04 15:20:53;;;;;;;47.17;20.63;;;4.70;99.90;;;;;;4860454;29;20100;-74
2021/12/04 15:23:22;;;;;;;44.70;21.55;;;4.70;99.90;;;;;;4862398;29;20367;-75
2021/12/04 15:25:52;;;;;;;51.35;24.33;;;5.40;99.90;;;;;;4863910;29;20458;-78
2021/12/04 15:28:21;;;;;;;91.28;48.50;;;4.70;99.90;;;;;;4864288;29;20092;-77
2021/12/04 15:30:51;;;;;;;51.03;22.85;;;4.70;99.90;;;;;;4864258;29;20110;-76
2021/12/04 15:33:26;;;;;;;59.92;30.77;;;4.70;99.90;;;;;;4863996;29;20049;-76
2021/12/04 15:35:53;;;;;;;50.53;22.88;;;4.70;99.90;;;;;;4864256;29;20051;-76
2021/12/04 15:38:40;;;;;;;52.30;28.80;;;4.70;99.90;;;;;;4864100;29;20503;-77
2021/12/04 15:54:16;;;;;;;44.60;20.80;;;4.80;99.90;;;;;;4809503;29;20071;-76
2021/12/04 15:56:48;;;;;;;48.80;24.17;;;4.80;99.90;;;;;;4824652;29;20097;-76
2021/12/04 15:59:23;;;;;;;136.32;80.38;;;4.90;99.90;;;;;;4824730;29;20065;-78
2021/12/04 16:01:58;;;;;;;56.90;31.92;;;4.80;99.90;;;;;;4809932;29;20062;-77
2021/12/04 16:04:29;;;;;;;82.72;48.08;;;4.70;99.90;;;;;;4809512;29;20103;-79